DAOL

Details ICAO DAOL (TAF)
Name TAFARAOUI
Region Algeria
Timezone Africa/Algiers (UTC+1.0)
Plans Departing 2
Arriving 5
Stats Elevation 367 ft / 112 m (AMSL)
Location 35.542453° -0.532272°
Runways 1
Magnetic Variation 0.218° E
Sunrise 2018-05-24 04:53:01 UTC / 2018-05-24 05:53:01 Local
Sunset 2018-05-24 19:07:47 UTC / 2018-05-24 20:07:47 Local
Advertisement - Login to hide

Runways

ID Width Length Bearing (true) Bearing (mag) Surface Threshold Offset Overrun Length
08 140 ft / 43 m 9,005 ft / 2,745 m 75.56° 75.34° Asphalt 0 ft / 0 m 0 ft / 0 m
26 140 ft / 43 m 9,005 ft / 2,745 m 255.58° 255.36° Asphalt 0 ft / 0 m 0 ft / 0 m

Map

Weather


0- 5 10 15 20 25 30 35+ Temperature / ° C

Clouds and Precipitation
Forecast for 2018-05-24 06:00 UTC. Updated 4 hours ago

Ground ~20,000 ft ~40,000 ft Winds

METAR

DAOL 240800Z 25008KT 6000 FEW016 SCT200 21/19 Q1012

TAF

Not found
Warning: Do not use this data for real-world aviation or navigation. No guarantee of current accuracy is given.